Hauptseite
METAR-TAF:

METAR-TAF

Flughäfen :

Vereeniging, Südafrika

Breite: 26-34-29S, Länge: 027-57-45E, Höhe: 1483 m

Beobachtung

Neuester Wetterbericht von vor 55 Minuten, um 12:00 UTC
Wind 4 kt aus Süd
Temperatur 26°C
Luftfeuchtigkeit 45%
Luftdruck 1025 hPa

METAR: FAVV 291200Z AUTO 18004KT //// // ////// 26/13 Q1025

Zeit: 14:55 (12:55 UTC)


TAF: fehlend

Wetterbeobachtungen und Prognosen von mehr als 4000 Flughäfen (METAR und TAF Bericht).

Die verfügbaren Stationen werden durch gelbe und rote Markierungen auf der Karte dargestellt.

Führen Sie die Maus auf sie, um den Namen der Station zu sehen.

Darauf klicken, um die Beobachtung von Wetterbeobachtungen und Prognosen zu sehen.

Um die Karte zu ändern : klicken Sie auf den grünen Tasten mit einem schwarzen Kreuz Zum Vergrößern, auf den grünen Button mit einem Gedankenstrich zu verkleinern, oder auf die grünen Pfeile für benachbarte Karten.


METAR-TAF: